Weather at Voinjama Airport

Public forecast

Using degrees Celsius for public forecast. Weather courtesy of forecast.io.

Closest aviation weather report (METAR) to Voinjama Airport

Report is more than 6 hours old.

Closest report is Nzérékoré Airport, 70.7 nm (130.9 km) ESE. Retrieved 2021/06/23 09:00 UTC (1 month ago):

GUNZ 230900Z VRB02KT 9999 FEW013 23/21 Q//// NOSIG

Closest aviation forecast (TAF) to Voinjama Airport

Forecast is more than 12 hours old.

Closest forecast is Lungi International Airport, 204.2 nm (378.2 km) W. Retrieved 2021/03/31 12:36 UTC (4 months ago):

TAF TAF GFLL 311100Z 3112/0118 36007KT 8000 HZ SCT013 TEMPO 3112/3116 24004KT FEW014 BECMG 0106/0108 VRB02KT 5000 BR NSC PROB30 BECMG 0114/0116 27004KT 9999 SCT013